sensor_id;sensor_type;location;lat;lon;timestamp;P1;durP1;ratioP1;P2;durP2;ratioP2
57573;SDS011;68988;49.000;21.242;2023-07-29T00:00:19;3.75;;;1.90;;
57573;SDS011;68988;49.000;21.242;2023-07-29T00:02:44;2.33;;;2.13;;
57573;SDS011;68988;49.000;21.242;2023-07-29T00:05:10;2.25;;;2.05;;
57573;SDS011;68988;49.000;21.242;2023-07-29T00:07:36;2.28;;;2.03;;
57573;SDS011;68988;49.000;21.242;2023-07-29T00:10:01;2.10;;;2.00;;
57573;SDS011;68988;49.000;21.242;2023-07-29T00:12:28;2.22;;;2.10;;
57573;SDS011;68988;49.000;21.242;2023-07-29T00:14:53;2.53;;;2.00;;
57573;SDS011;68988;49.000;21.242;2023-07-29T00:17:19;2.17;;;1.95;;
57573;SDS011;68988;49.000;21.242;2023-07-29T00:19:45;2.00;;;1.90;;
57573;SDS011;68988;49.000;21.242;2023-07-29T00:22:11;2.13;;;2.03;;
57573;SDS011;68988;49.000;21.242;2023-07-29T00:24:36;2.00;;;1.80;;
57573;SDS011;68988;49.000;21.242;2023-07-29T00:27:01;3.05;;;1.98;;
57573;SDS011;68988;49.000;21.242;2023-07-29T00:29:27;2.20;;;2.00;;
57573;SDS011;68988;49.000;21.242;2023-07-29T00:31:52;2.00;;;1.90;;
57573;SDS011;68988;49.000;21.242;2023-07-29T00:34:17;2.00;;;1.90;;
57573;SDS011;68988;49.000;21.242;2023-07-29T00:36:44;2.13;;;2.03;;
57573;SDS011;68988;49.000;21.242;2023-07-29T00:39:10;3.50;;;2.03;;
57573;SDS011;68988;49.000;21.242;2023-07-29T00:41:35;2.00;;;1.80;;
57573;SDS011;68988;49.000;21.242;2023-07-29T00:44:01;6.82;;;1.80;;
57573;SDS011;68988;49.000;21.242;2023-07-29T00:46:27;2.28;;;2.08;;
57573;SDS011;68988;49.000;21.242;2023-07-29T00:48:53;4.80;;;1.95;;
57573;SDS011;68988;49.000;21.242;2023-07-29T00:51:19;1.90;;;1.80;;
57573;SDS011;68988;49.000;21.242;2023-07-29T00:53:44;2.20;;;2.00;;
57573;SDS011;68988;49.000;21.242;2023-07-29T00:56:09;2.13;;;2.03;;
57573;SDS011;68988;49.000;21.242;2023-07-29T00:58:35;4.93;;;2.72;;
57573;SDS011;68988;49.000;21.242;2023-07-29T01:01:01;1.77;;;1.67;;
57573;SDS011;68988;49.000;21.242;2023-07-29T01:03:26;2.67;;;1.90;;
57573;SDS011;68988;49.000;21.242;2023-07-29T01:06:08;2.17;;;2.00;;
57573;SDS011;68988;49.000;21.242;2023-07-29T01:08:52;3.83;;;2.00;;
57573;SDS011;68988;49.000;21.242;2023-07-29T01:11:33;1.85;;;1.75;;
57573;SDS011;68988;49.000;21.242;2023-07-29T01:16:53;2.15;;;2.00;;
57573;SDS011;68988;49.000;21.242;2023-07-29T01:19:27;2.10;;;2.00;;
57573;SDS011;68988;49.000;21.242;2023-07-29T01:22:08;1.90;;;1.65;;
57573;SDS011;68988;49.000;21.242;2023-07-29T01:24:35;2.00;;;1.90;;
57573;SDS011;68988;49.000;21.242;2023-07-29T01:27:00;5.22;;;2.08;;
57573;SDS011;68988;49.000;21.242;2023-07-29T01:29:26;1.75;;;1.65;;
57573;SDS011;68988;49.000;21.242;2023-07-29T01:31:53;2.10;;;1.90;;
57573;SDS011;68988;49.000;21.242;2023-07-29T01:34:29;2.20;;;1.98;;
57573;SDS011;68988;49.000;21.242;2023-07-29T01:37:00;1.95;;;1.85;;
57573;SDS011;68988;49.000;21.242;2023-07-29T01:39:30;1.88;;;1.77;;
57573;SDS011;68988;49.000;21.242;2023-07-29T01:42:00;1.80;;;1.70;;
57573;SDS011;68988;49.000;21.242;2023-07-29T01:44:25;3.90;;;1.77;;
57573;SDS011;68988;49.000;21.242;2023-07-29T01:46:51;5.22;;;2.03;;
57573;SDS011;68988;49.000;21.242;2023-07-29T01:49:16;1.90;;;1.80;;
57573;SDS011;68988;49.000;21.242;2023-07-29T01:51:41;3.92;;;2.00;;
57573;SDS011;68988;49.000;21.242;2023-07-29T01:54:07;2.17;;;1.85;;
57573;SDS011;68988;49.000;21.242;2023-07-29T01:56:32;2.03;;;1.80;;
57573;SDS011;68988;49.000;21.242;2023-07-29T01:58:58;2.15;;;2.00;;
57573;SDS011;68988;49.000;21.242;2023-07-29T02:01:23;2.42;;;1.73;;
57573;SDS011;68988;49.000;21.242;2023-07-29T02:03:48;2.10;;;1.90;;
57573;SDS011;68988;49.000;21.242;2023-07-29T02:06:19;2.60;;;2.17;;
57573;SDS011;68988;49.000;21.242;2023-07-29T02:08:45;2.20;;;2.00;;
57573;SDS011;68988;49.000;21.242;2023-07-29T02:11:10;2.17;;;1.90;;
57573;SDS011;68988;49.000;21.242;2023-07-29T02:13:35;1.98;;;1.88;;
57573;SDS011;68988;49.000;21.242;2023-07-29T02:16:01;3.28;;;1.92;;
57573;SDS011;68988;49.000;21.242;2023-07-29T02:18:26;2.42;;;2.00;;
57573;SDS011;68988;49.000;21.242;2023-07-29T02:20:52;2.67;;;2.00;;
57573;SDS011;68988;49.000;21.242;2023-07-29T02:23:17;2.08;;;1.67;;
57573;SDS011;68988;49.000;21.242;2023-07-29T02:25:42;3.13;;;1.88;;
57573;SDS011;68988;49.000;21.242;2023-07-29T02:28:08;2.15;;;1.95;;
57573;SDS011;68988;49.000;21.242;2023-07-29T02:30:33;2.15;;;1.90;;
57573;SDS011;68988;49.000;21.242;2023-07-29T02:32:59;2.63;;;1.73;;
57573;SDS011;68988;49.000;21.242;2023-07-29T02:35:26;2.35;;;1.90;;
57573;SDS011;68988;49.000;21.242;2023-07-29T02:37:51;3.58;;;1.95;;
57573;SDS011;68988;49.000;21.242;2023-07-29T02:40:17;2.92;;;1.70;;
57573;SDS011;68988;49.000;21.242;2023-07-29T02:42:42;3.53;;;1.90;;
57573;SDS011;68988;49.000;21.242;2023-07-29T02:45:07;2.25;;;1.80;;
57573;SDS011;68988;49.000;21.242;2023-07-29T02:47:35;2.35;;;2.15;;
57573;SDS011;68988;49.000;21.242;2023-07-29T02:50:02;1.77;;;1.67;;
57573;SDS011;68988;49.000;21.242;2023-07-29T02:52:27;4.13;;;1.83;;
57573;SDS011;68988;49.000;21.242;2023-07-29T02:54:52;2.15;;;1.98;;
57573;SDS011;68988;49.000;21.242;2023-07-29T02:57:18;2.53;;;1.75;;
57573;SDS011;68988;49.000;21.242;2023-07-29T02:59:43;2.00;;;1.60;;
57573;SDS011;68988;49.000;21.242;2023-07-29T03:02:08;2.38;;;1.65;;
57573;SDS011;68988;49.000;21.242;2023-07-29T03:04:34;4.80;;;1.83;;
57573;SDS011;68988;49.000;21.242;2023-07-29T03:06:59;2.58;;;1.90;;
57573;SDS011;68988;49.000;21.242;2023-07-29T03:09:25;1.75;;;1.65;;
57573;SDS011;68988;49.000;21.242;2023-07-29T03:11:50;1.80;;;1.60;;
57573;SDS011;68988;49.000;21.242;2023-07-29T03:14:17;1.83;;;1.70;;
57573;SDS011;68988;49.000;21.242;2023-07-29T03:16:43;1.80;;;1.70;;
57573;SDS011;68988;49.000;21.242;2023-07-29T03:19:08;6.43;;;1.73;;
57573;SDS011;68988;49.000;21.242;2023-07-29T03:21:33;1.83;;;1.63;;
57573;SDS011;68988;49.000;21.242;2023-07-29T03:23:59;3.63;;;1.67;;
57573;SDS011;68988;49.000;21.242;2023-07-29T03:26:25;3.05;;;1.90;;
57573;SDS011;68988;49.000;21.242;2023-07-29T03:28:50;2.67;;;1.65;;
57573;SDS011;68988;49.000;21.242;2023-07-29T03:31:16;1.80;;;1.70;;
57573;SDS011;68988;49.000;21.242;2023-07-29T03:33:41;1.63;;;1.52;;
57573;SDS011;68988;49.000;21.242;2023-07-29T03:36:07;3.38;;;1.50;;
57573;SDS011;68988;49.000;21.242;2023-07-29T03:38:33;2.00;;;1.50;;
57573;SDS011;68988;49.000;21.242;2023-07-29T03:41:00;2.33;;;1.60;;
57573;SDS011;68988;49.000;21.242;2023-07-29T03:43:27;2.97;;;1.65;;
57573;SDS011;68988;49.000;21.242;2023-07-29T03:45:53;1.92;;;1.83;;
57573;SDS011;68988;49.000;21.242;2023-07-29T03:48:19;5.47;;;2.22;;
57573;SDS011;68988;49.000;21.242;2023-07-29T03:50:45;3.22;;;2.85;;
57573;SDS011;68988;49.000;21.242;2023-07-29T03:53:10;4.10;;;3.78;;
57573;SDS011;68988;49.000;21.242;2023-07-29T03:55:36;4.75;;;3.78;;
57573;SDS011;68988;49.000;21.242;2023-07-29T03:58:01;11.77;;;4.65;;
57573;SDS011;68988;49.000;21.242;2023-07-29T04:00:26;5.38;;;4.88;;
57573;SDS011;68988;49.000;21.242;2023-07-29T04:02:52;5.20;;;4.80;;
57573;SDS011;68988;49.000;21.242;2023-07-29T04:05:18;4.53;;;4.13;;
57573;SDS011;68988;49.000;21.242;2023-07-29T04:07:44;4.65;;;4.25;;
57573;SDS011;68988;49.000;21.242;2023-07-29T04:10:10;4.15;;;3.75;;
57573;SDS011;68988;49.000;21.242;2023-07-29T04:12:35;3.65;;;3.35;;
57573;SDS011;68988;49.000;21.242;2023-07-29T04:15:01;3.83;;;3.53;;
57573;SDS011;68988;49.000;21.242;2023-07-29T04:17:27;3.20;;;2.90;;
57573;SDS011;68988;49.000;21.242;2023-07-29T04:19:52;3.08;;;2.88;;
57573;SDS011;68988;49.000;21.242;2023-07-29T04:22:18;3.53;;;3.00;;
57573;SDS011;68988;49.000;21.242;2023-07-29T04:24:43;4.05;;;3.20;;
57573;SDS011;68988;49.000;21.242;2023-07-29T04:27:08;3.42;;;3.08;;
57573;SDS011;68988;49.000;21.242;2023-07-29T04:29:34;3.67;;;3.08;;
57573;SDS011;68988;49.000;21.242;2023-07-29T04:32:01;3.88;;;3.13;;
57573;SDS011;68988;49.000;21.242;2023-07-29T04:34:29;4.28;;;3.35;;
57573;SDS011;68988;49.000;21.242;2023-07-29T04:36:54;3.03;;;2.67;;
57573;SDS011;68988;49.000;21.242;2023-07-29T04:39:20;5.45;;;3.05;;
57573;SDS011;68988;49.000;21.242;2023-07-29T04:41:46;2.97;;;2.67;;
57573;SDS011;68988;49.000;21.242;2023-07-29T04:44:12;2.80;;;2.60;;
57573;SDS011;68988;49.000;21.242;2023-07-29T04:46:37;3.28;;;2.83;;
57573;SDS011;68988;49.000;21.242;2023-07-29T04:49:03;2.83;;;2.63;;
57573;SDS011;68988;49.000;21.242;2023-07-29T04:51:29;2.58;;;2.30;;
57573;SDS011;68988;49.000;21.242;2023-07-29T04:53:56;3.30;;;2.63;;
57573;SDS011;68988;49.000;21.242;2023-07-29T04:56:22;4.85;;;2.80;;
57573;SDS011;68988;49.000;21.242;2023-07-29T04:58:47;2.70;;;2.47;;
57573;SDS011;68988;49.000;21.242;2023-07-29T05:01:12;2.58;;;2.38;;
57573;SDS011;68988;49.000;21.242;2023-07-29T05:03:38;2.85;;;2.40;;
57573;SDS011;68988;49.000;21.242;2023-07-29T05:06:04;2.55;;;2.28;;
57573;SDS011;68988;49.000;21.242;2023-07-29T05:08:30;5.40;;;2.42;;
57573;SDS011;68988;49.000;21.242;2023-07-29T05:10:55;4.18;;;2.03;;
57573;SDS011;68988;49.000;21.242;2023-07-29T05:13:21;3.50;;;2.53;;
57573;SDS011;68988;49.000;21.242;2023-07-29T05:15:47;3.05;;;2.35;;
57573;SDS011;68988;49.000;21.242;2023-07-29T05:18:13;3.58;;;2.45;;
57573;SDS011;68988;49.000;21.242;2023-07-29T05:20:38;2.30;;;2.20;;
57573;SDS011;68988;49.000;21.242;2023-07-29T05:23:03;2.38;;;2.17;;
57573;SDS011;68988;49.000;21.242;2023-07-29T05:25:29;2.10;;;1.90;;
57573;SDS011;68988;49.000;21.242;2023-07-29T05:27:54;3.08;;;1.98;;
57573;SDS011;68988;49.000;21.242;2023-07-29T05:30:20;2.78;;;2.05;;
57573;SDS011;68988;49.000;21.242;2023-07-29T05:32:45;4.03;;;1.98;;
57573;SDS011;68988;49.000;21.242;2023-07-29T05:35:10;2.35;;;1.90;;
57573;SDS011;68988;49.000;21.242;2023-07-29T05:37:39;2.00;;;1.90;;
57573;SDS011;68988;49.000;21.242;2023-07-29T05:40:07;1.95;;;1.85;;
57573;SDS011;68988;49.000;21.242;2023-07-29T05:42:36;2.10;;;2.00;;
57573;SDS011;68988;49.000;21.242;2023-07-29T05:45:01;1.90;;;1.67;;
57573;SDS011;68988;49.000;21.242;2023-07-29T05:47:27;2.08;;;1.80;;
57573;SDS011;68988;49.000;21.242;2023-07-29T05:49:53;2.67;;;1.73;;
57573;SDS011;68988;49.000;21.242;2023-07-29T05:52:18;2.00;;;1.77;;
57573;SDS011;68988;49.000;21.242;2023-07-29T05:54:43;2.00;;;1.65;;
57573;SDS011;68988;49.000;21.242;2023-07-29T05:57:09;3.92;;;1.90;;
57573;SDS011;68988;49.000;21.242;2023-07-29T05:59:36;2.50;;;1.70;;
57573;SDS011;68988;49.000;21.242;2023-07-29T06:02:01;1.90;;;1.80;;
57573;SDS011;68988;49.000;21.242;2023-07-29T06:04:26;1.92;;;1.83;;
57573;SDS011;68988;49.000;21.242;2023-07-29T06:06:52;2.88;;;1.95;;
57573;SDS011;68988;49.000;21.242;2023-07-29T06:09:17;1.75;;;1.52;;
57573;SDS011;68988;49.000;21.242;2023-07-29T06:11:43;1.70;;;1.50;;
57573;SDS011;68988;49.000;21.242;2023-07-29T06:14:08;2.33;;;1.70;;
57573;SDS011;68988;49.000;21.242;2023-07-29T06:16:34;2.50;;;1.80;;
57573;SDS011;68988;49.000;21.242;2023-07-29T06:18:59;1.60;;;1.50;;
57573;SDS011;68988;49.000;21.242;2023-07-29T06:21:24;2.05;;;1.77;;
57573;SDS011;68988;49.000;21.242;2023-07-29T06:23:50;1.40;;;1.30;;
57573;SDS011;68988;49.000;21.242;2023-07-29T06:26:15;1.98;;;1.73;;
57573;SDS011;68988;49.000;21.242;2023-07-29T06:28:40;3.53;;;1.48;;
57573;SDS011;68988;49.000;21.242;2023-07-29T06:31:06;1.38;;;1.27;;
57573;SDS011;68988;49.000;21.242;2023-07-29T06:33:31;3.05;;;1.42;;
57573;SDS011;68988;49.000;21.242;2023-07-29T06:35:57;1.65;;;1.55;;
57573;SDS011;68988;49.000;21.242;2023-07-29T06:38:22;3.08;;;1.60;;
57573;SDS011;68988;49.000;21.242;2023-07-29T06:40:48;1.70;;;1.60;;
57573;SDS011;68988;49.000;21.242;2023-07-29T06:43:13;1.50;;;1.30;;
57573;SDS011;68988;49.000;21.242;2023-07-29T06:45:39;1.63;;;1.52;;
57573;SDS011;68988;49.000;21.242;2023-07-29T06:48:04;3.45;;;1.48;;
57573;SDS011;68988;49.000;21.242;2023-07-29T06:50:30;1.70;;;1.60;;
57573;SDS011;68988;49.000;21.242;2023-07-29T06:52:55;6.45;;;1.67;;
57573;SDS011;68988;49.000;21.242;2023-07-29T06:55:20;1.52;;;1.40;;
57573;SDS011;68988;49.000;21.242;2023-07-29T06:57:46;1.40;;;1.30;;
57573;SDS011;68988;49.000;21.242;2023-07-29T07:00:11;1.73;;;1.50;;
57573;SDS011;68988;49.000;21.242;2023-07-29T07:02:37;1.55;;;1.40;;
57573;SDS011;68988;49.000;21.242;2023-07-29T07:05:02;1.73;;;1.27;;
57573;SDS011;68988;49.000;21.242;2023-07-29T07:07:27;2.33;;;1.40;;
57573;SDS011;68988;49.000;21.242;2023-07-29T07:09:53;2.20;;;1.23;;
57573;SDS011;68988;49.000;21.242;2023-07-29T07:12:18;1.33;;;1.20;;
57573;SDS011;68988;49.000;21.242;2023-07-29T07:14:44;1.55;;;1.40;;
57573;SDS011;68988;49.000;21.242;2023-07-29T07:17:09;1.50;;;1.40;;
57573;SDS011;68988;49.000;21.242;2023-07-29T07:19:34;1.40;;;1.30;;
57573;SDS011;68988;49.000;21.242;2023-07-29T07:22:00;2.38;;;1.50;;
57573;SDS011;68988;49.000;21.242;2023-07-29T07:24:25;1.70;;;1.40;;
57573;SDS011;68988;49.000;21.242;2023-07-29T07:26:50;1.58;;;1.48;;
57573;SDS011;68988;49.000;21.242;2023-07-29T07:29:16;2.05;;;1.42;;
57573;SDS011;68988;49.000;21.242;2023-07-29T07:31:46;1.42;;;1.30;;
57573;SDS011;68988;49.000;21.242;2023-07-29T07:34:16;3.65;;;1.50;;
57573;SDS011;68988;49.000;21.242;2023-07-29T07:36:41;1.55;;;1.35;;
57573;SDS011;68988;49.000;21.242;2023-07-29T07:39:07;1.35;;;1.35;;
57573;SDS011;68988;49.000;21.242;2023-07-29T07:41:32;1.42;;;1.33;;
57573;SDS011;68988;49.000;21.242;2023-07-29T07:43:57;2.08;;;1.30;;
57573;SDS011;68988;49.000;21.242;2023-07-29T07:46:23;1.38;;;1.27;;
57573;SDS011;68988;49.000;21.242;2023-07-29T07:48:48;1.60;;;1.50;;
57573;SDS011;68988;49.000;21.242;2023-07-29T07:51:13;1.55;;;1.45;;
57573;SDS011;68988;49.000;21.242;2023-07-29T07:53:39;2.33;;;1.40;;
57573;SDS011;68988;49.000;21.242;2023-07-29T07:56:05;1.67;;;1.58;;
57573;SDS011;68988;49.000;21.242;2023-07-29T07:58:31;3.25;;;1.58;;
57573;SDS011;68988;49.000;21.242;2023-07-29T08:01:03;4.25;;;1.48;;
57573;SDS011;68988;49.000;21.242;2023-07-29T08:03:29;1.48;;;1.35;;
57573;SDS011;68988;49.000;21.242;2023-07-29T08:05:55;2.13;;;1.50;;
57573;SDS011;68988;49.000;21.242;2023-07-29T08:08:20;1.52;;;1.42;;
57573;SDS011;68988;49.000;21.242;2023-07-29T08:10:46;2.28;;;1.70;;
57573;SDS011;68988;49.000;21.242;2023-07-29T08:13:11;1.60;;;1.50;;
57573;SDS011;68988;49.000;21.242;2023-07-29T08:15:36;1.80;;;1.70;;
57573;SDS011;68988;49.000;21.242;2023-07-29T08:18:02;2.45;;;1.55;;
57573;SDS011;68988;49.000;21.242;2023-07-29T08:20:27;2.28;;;1.73;;
57573;SDS011;68988;49.000;21.242;2023-07-29T08:22:52;1.67;;;1.58;;
57573;SDS011;68988;49.000;21.242;2023-07-29T08:25:18;3.45;;;1.42;;
57573;SDS011;68988;49.000;21.242;2023-07-29T08:27:43;1.30;;;1.20;;
57573;SDS011;68988;49.000;21.242;2023-07-29T08:30:08;1.52;;;1.42;;
57573;SDS011;68988;49.000;21.242;2023-07-29T08:32:34;1.50;;;1.40;;
57573;SDS011;68988;49.000;21.242;2023-07-29T08:34:59;1.50;;;1.40;;
57573;SDS011;68988;49.000;21.242;2023-07-29T08:37:25;1.67;;;1.58;;
57573;SDS011;68988;49.000;21.242;2023-07-29T08:39:52;1.20;;;1.20;;
57573;SDS011;68988;49.000;21.242;2023-07-29T08:42:19;1.95;;;1.70;;
57573;SDS011;68988;49.000;21.242;2023-07-29T08:44:45;1.85;;;1.75;;
57573;SDS011;68988;49.000;21.242;2023-07-29T08:47:14;1.38;;;1.20;;
57573;SDS011;68988;49.000;21.242;2023-07-29T08:49:39;5.68;;;1.50;;
57573;SDS011;68988;49.000;21.242;2023-07-29T08:52:06;2.15;;;1.40;;
57573;SDS011;68988;49.000;21.242;2023-07-29T08:54:32;2.45;;;1.40;;
57573;SDS011;68988;49.000;21.242;2023-07-29T08:56:58;1.67;;;1.45;;
57573;SDS011;68988;49.000;21.242;2023-07-29T08:59:24;1.48;;;1.38;;
57573;SDS011;68988;49.000;21.242;2023-07-29T09:01:51;2.15;;;1.90;;
57573;SDS011;68988;49.000;21.242;2023-07-29T09:04:20;1.35;;;1.25;;
57573;SDS011;68988;49.000;21.242;2023-07-29T09:06:45;1.88;;;1.65;;
57573;SDS011;68988;49.000;21.242;2023-07-29T09:09:15;1.30;;;1.30;;
57573;SDS011;68988;49.000;21.242;2023-07-29T09:11:40;1.83;;;1.73;;
57573;SDS011;68988;49.000;21.242;2023-07-29T09:14:05;1.48;;;1.40;;
57573;SDS011;68988;49.000;21.242;2023-07-29T09:16:31;1.73;;;1.25;;
57573;SDS011;68988;49.000;21.242;2023-07-29T09:18:58;1.40;;;1.30;;
57573;SDS011;68988;49.000;21.242;2023-07-29T09:21:26;4.15;;;1.70;;
57573;SDS011;68988;49.000;21.242;2023-07-29T09:23:53;1.52;;;1.42;;
57573;SDS011;68988;49.000;21.242;2023-07-29T09:26:23;2.75;;;1.50;;
57573;SDS011;68988;49.000;21.242;2023-07-29T09:28:53;4.90;;;1.40;;
57573;SDS011;68988;49.000;21.242;2023-07-29T09:31:24;4.13;;;1.50;;
57573;SDS011;68988;49.000;21.242;2023-07-29T09:34:01;1.50;;;1.40;;
57573;SDS011;68988;49.000;21.242;2023-07-29T09:36:30;1.65;;;1.55;;
57573;SDS011;68988;49.000;21.242;2023-07-29T09:38:57;1.70;;;1.60;;
57573;SDS011;68988;49.000;21.242;2023-07-29T09:41:23;1.75;;;1.40;;
57573;SDS011;68988;49.000;21.242;2023-07-29T09:43:54;1.65;;;1.55;;
57573;SDS011;68988;49.000;21.242;2023-07-29T09:46:24;3.97;;;1.70;;
57573;SDS011;68988;49.000;21.242;2023-07-29T09:48:52;1.73;;;1.63;;
57573;SDS011;68988;49.000;21.242;2023-07-29T09:51:22;6.05;;;1.42;;
57573;SDS011;68988;49.000;21.242;2023-07-29T09:53:48;3.85;;;1.50;;
57573;SDS011;68988;49.000;21.242;2023-07-29T09:56:15;1.50;;;1.40;;
57573;SDS011;68988;49.000;21.242;2023-07-29T09:58:41;3.45;;;1.60;;
57573;SDS011;68988;49.000;21.242;2023-07-29T10:01:08;1.48;;;1.38;;
57573;SDS011;68988;49.000;21.242;2023-07-29T10:03:34;1.40;;;1.30;;
57573;SDS011;68988;49.000;21.242;2023-07-29T10:06:01;1.50;;;1.42;;
57573;SDS011;68988;49.000;21.242;2023-07-29T10:08:29;1.50;;;1.40;;
57573;SDS011;68988;49.000;21.242;2023-07-29T10:10:56;1.45;;;1.35;;
57573;SDS011;68988;49.000;21.242;2023-07-29T10:13:24;2.08;;;1.60;;
57573;SDS011;68988;49.000;21.242;2023-07-29T10:15:51;7.18;;;2.00;;
57573;SDS011;68988;49.000;21.242;2023-07-29T10:18:18;2.65;;;1.88;;
57573;SDS011;68988;49.000;21.242;2023-07-29T10:20:43;2.90;;;1.63;;
57573;SDS011;68988;49.000;21.242;2023-07-29T10:23:09;2.08;;;1.90;;
57573;SDS011;68988;49.000;21.242;2023-07-29T10:25:39;1.98;;;1.70;;
57573;SDS011;68988;49.000;21.242;2023-07-29T10:28:12;2.20;;;1.65;;
57573;SDS011;68988;49.000;21.242;2023-07-29T10:30:39;2.78;;;1.83;;
57573;SDS011;68988;49.000;21.242;2023-07-29T10:33:04;5.57;;;1.75;;
57573;SDS011;68988;49.000;21.242;2023-07-29T10:35:34;4.30;;;1.85;;
57573;SDS011;68988;49.000;21.242;2023-07-29T10:38:02;2.78;;;1.67;;
57573;SDS011;68988;49.000;21.242;2023-07-29T10:43:10;2.72;;;1.90;;
57573;SDS011;68988;49.000;21.242;2023-07-29T10:45:38;2.03;;;1.77;;
57573;SDS011;68988;49.000;21.242;2023-07-29T10:48:39;3.20;;;2.00;;
57573;SDS011;68988;49.000;21.242;2023-07-29T10:53:52;2.45;;;2.13;;
57573;SDS011;68988;49.000;21.242;2023-07-29T10:56:29;2.42;;;2.20;;
57573;SDS011;68988;49.000;21.242;2023-07-29T10:58:56;3.55;;;2.25;;
57573;SDS011;68988;49.000;21.242;2023-07-29T11:01:56;4.63;;;2.10;;
57573;SDS011;68988;49.000;21.242;2023-07-29T11:04:27;2.30;;;2.10;;
57573;SDS011;68988;49.000;21.242;2023-07-29T11:17:36;6.95;;;2.83;;
57573;SDS011;68988;49.000;21.242;2023-07-29T11:20:03;3.92;;;3.13;;
57573;SDS011;68988;49.000;21.242;2023-07-29T11:22:30;6.03;;;3.20;;
57573;SDS011;68988;49.000;21.242;2023-07-29T11:24:55;6.00;;;3.30;;
57573;SDS011;68988;49.000;21.242;2023-07-29T11:27:21;4.85;;;3.20;;
57573;SDS011;68988;49.000;21.242;2023-07-29T11:29:47;7.82;;;3.30;;
57573;SDS011;68988;49.000;21.242;2023-07-29T11:32:13;3.40;;;3.10;;
57573;SDS011;68988;49.000;21.242;2023-07-29T11:34:40;4.25;;;3.22;;
57573;SDS011;68988;49.000;21.242;2023-07-29T11:37:06;3.55;;;3.28;;
57573;SDS011;68988;49.000;21.242;2023-07-29T11:39:39;4.97;;;3.08;;
57573;SDS011;68988;49.000;21.242;2023-07-29T11:42:05;3.00;;;2.80;;
57573;SDS011;68988;49.000;21.242;2023-07-29T11:44:31;3.80;;;3.35;;
57573;SDS011;68988;49.000;21.242;2023-07-29T11:46:56;4.65;;;2.70;;
57573;SDS011;68988;49.000;21.242;2023-07-29T11:49:21;4.25;;;3.00;;
57573;SDS011;68988;49.000;21.242;2023-07-29T11:51:47;5.30;;;2.85;;
57573;SDS011;68988;49.000;21.242;2023-07-29T11:54:12;5.07;;;3.75;;
57573;SDS011;68988;49.000;21.242;2023-07-29T11:56:38;4.68;;;2.72;;
57573;SDS011;68988;49.000;21.242;2023-07-29T11:59:03;3.55;;;2.80;;
57573;SDS011;68988;49.000;21.242;2023-07-29T12:01:28;4.72;;;2.95;;
57573;SDS011;68988;49.000;21.242;2023-07-29T12:03:55;7.63;;;2.75;;
57573;SDS011;68988;49.000;21.242;2023-07-29T12:06:22;3.28;;;2.72;;
57573;SDS011;68988;49.000;21.242;2023-07-29T12:08:49;5.25;;;2.63;;
57573;SDS011;68988;49.000;21.242;2023-07-29T12:11:15;3.35;;;2.67;;
57573;SDS011;68988;49.000;21.242;2023-07-29T12:13:41;4.82;;;2.88;;
57573;SDS011;68988;49.000;21.242;2023-07-29T12:16:07;9.77;;;2.85;;
57573;SDS011;68988;49.000;21.242;2023-07-29T12:18:32;4.93;;;2.80;;
57573;SDS011;68988;49.000;21.242;2023-07-29T12:20:58;4.97;;;2.75;;
57573;SDS011;68988;49.000;21.242;2023-07-29T12:23:24;2.97;;;2.50;;
57573;SDS011;68988;49.000;21.242;2023-07-29T12:25:56;5.93;;;2.60;;
57573;SDS011;68988;49.000;21.242;2023-07-29T12:28:23;2.97;;;2.63;;
57573;SDS011;68988;49.000;21.242;2023-07-29T12:30:53;4.97;;;2.45;;
57573;SDS011;68988;49.000;21.242;2023-07-29T12:33:31;5.32;;;2.65;;
57573;SDS011;68988;49.000;21.242;2023-07-29T12:35:59;2.85;;;2.53;;
57573;SDS011;68988;49.000;21.242;2023-07-29T12:38:25;2.92;;;2.58;;
57573;SDS011;68988;49.000;21.242;2023-07-29T12:40:51;4.28;;;2.63;;
57573;SDS011;68988;49.000;21.242;2023-07-29T12:43:16;7.32;;;2.70;;
57573;SDS011;68988;49.000;21.242;2023-07-29T12:45:42;3.70;;;2.85;;
57573;SDS011;68988;49.000;21.242;2023-07-29T12:48:09;9.23;;;2.80;;
57573;SDS011;68988;49.000;21.242;2023-07-29T12:50:35;3.53;;;2.70;;
57573;SDS011;68988;49.000;21.242;2023-07-29T12:53:01;3.92;;;2.78;;
57573;SDS011;68988;49.000;21.242;2023-07-29T12:55:26;2.72;;;2.53;;
57573;SDS011;68988;49.000;21.242;2023-07-29T12:57:51;3.15;;;2.80;;
57573;SDS011;68988;49.000;21.242;2023-07-29T13:00:17;4.32;;;3.00;;
57573;SDS011;68988;49.000;21.242;2023-07-29T13:02:42;3.25;;;2.80;;
57573;SDS011;68988;49.000;21.242;2023-07-29T13:05:11;3.10;;;2.83;;
57573;SDS011;68988;49.000;21.242;2023-07-29T13:07:39;3.08;;;2.75;;
57573;SDS011;68988;49.000;21.242;2023-07-29T13:10:05;4.13;;;3.00;;
57573;SDS011;68988;49.000;21.242;2023-07-29T13:12:31;3.13;;;2.83;;
57573;SDS011;68988;49.000;21.242;2023-07-29T13:14:57;3.65;;;2.95;;
57573;SDS011;68988;49.000;21.242;2023-07-29T13:17:22;3.72;;;2.67;;
57573;SDS011;68988;49.000;21.242;2023-07-29T13:19:48;2.80;;;2.60;;
57573;SDS011;68988;49.000;21.242;2023-07-29T13:22:13;4.18;;;2.60;;
57573;SDS011;68988;49.000;21.242;2023-07-29T13:24:39;2.58;;;2.38;;
57573;SDS011;68988;49.000;21.242;2023-07-29T13:27:04;3.30;;;2.60;;
57573;SDS011;68988;49.000;21.242;2023-07-29T13:29:30;2.80;;;2.50;;
57573;SDS011;68988;49.000;21.242;2023-07-29T13:31:55;3.40;;;2.53;;
57573;SDS011;68988;49.000;21.242;2023-07-29T13:34:20;2.35;;;2.20;;
57573;SDS011;68988;49.000;21.242;2023-07-29T13:36:46;4.18;;;2.47;;
57573;SDS011;68988;49.000;21.242;2023-07-29T13:39:12;20.83;;;2.78;;
57573;SDS011;68988;49.000;21.242;2023-07-29T13:41:37;2.95;;;2.60;;
57573;SDS011;68988;49.000;21.242;2023-07-29T13:44:03;2.90;;;2.70;;
57573;SDS011;68988;49.000;21.242;2023-07-29T13:46:28;2.60;;;2.40;;
57573;SDS011;68988;49.000;21.242;2023-07-29T13:48:54;2.50;;;2.30;;
57573;SDS011;68988;49.000;21.242;2023-07-29T13:51:19;3.15;;;2.20;;
57573;SDS011;68988;49.000;21.242;2023-07-29T13:53:44;2.85;;;2.65;;
57573;SDS011;68988;49.000;21.242;2023-07-29T13:56:10;5.30;;;2.25;;
57573;SDS011;68988;49.000;21.242;2023-07-29T13:58:35;2.78;;;2.17;;
57573;SDS011;68988;49.000;21.242;2023-07-29T14:01:00;3.47;;;2.08;;
57573;SDS011;68988;49.000;21.242;2023-07-29T14:03:26;2.03;;;1.92;;
57573;SDS011;68988;49.000;21.242;2023-07-29T14:05:51;3.88;;;2.20;;
57573;SDS011;68988;49.000;21.242;2023-07-29T14:08:16;2.65;;;2.40;;
57573;SDS011;68988;49.000;21.242;2023-07-29T14:10:42;2.28;;;1.98;;
57573;SDS011;68988;49.000;21.242;2023-07-29T14:13:07;2.72;;;2.00;;
57573;SDS011;68988;49.000;21.242;2023-07-29T14:15:32;2.65;;;2.33;;
57573;SDS011;68988;49.000;21.242;2023-07-29T14:17:58;2.47;;;2.22;;
57573;SDS011;68988;49.000;21.242;2023-07-29T14:20:23;2.30;;;2.20;;
57573;SDS011;68988;49.000;21.242;2023-07-29T14:22:49;3.10;;;2.47;;
57573;SDS011;68988;49.000;21.242;2023-07-29T14:25:14;2.00;;;1.90;;
57573;SDS011;68988;49.000;21.242;2023-07-29T14:27:40;2.33;;;2.13;;
57573;SDS011;68988;49.000;21.242;2023-07-29T14:30:05;2.67;;;2.20;;
57573;SDS011;68988;49.000;21.242;2023-07-29T14:32:31;3.55;;;2.08;;
57573;SDS011;68988;49.000;21.242;2023-07-29T14:34:57;2.70;;;2.40;;
57573;SDS011;68988;49.000;21.242;2023-07-29T14:37:22;2.20;;;2.00;;
57573;SDS011;68988;49.000;21.242;2023-07-29T14:39:48;4.22;;;1.88;;
57573;SDS011;68988;49.000;21.242;2023-07-29T14:42:13;2.28;;;2.08;;
57573;SDS011;68988;49.000;21.242;2023-07-29T14:44:40;1.80;;;1.70;;
57573;SDS011;68988;49.000;21.242;2023-07-29T14:47:07;2.53;;;1.80;;